createdAt,value
2017-02-01T00:00:57.025Z,12.24
2017-02-01T00:02:06.755Z,12.27
2017-02-01T00:03:16.932Z,12.28
2017-02-01T00:04:27.153Z,12.23
2017-02-01T00:05:36.878Z,12.19
2017-02-01T00:06:46.612Z,12.28
2017-02-01T00:07:55.901Z,12.27
2017-02-01T00:09:06.074Z,12.27
2017-02-01T00:10:16.335Z,12.21
2017-02-01T00:11:26.513Z,12.31
2017-02-01T00:12:36.246Z,12.24
2017-02-01T00:13:45.977Z,12.24
2017-02-01T00:14:56.168Z,12.27
2017-02-01T00:16:05.953Z,12.2
2017-02-01T00:17:16.129Z,12.2
2017-02-01T00:18:26.300Z,12.31
2017-02-01T00:19:36.043Z,12.2
2017-02-01T00:20:46.221Z,12.21
2017-02-01T00:21:56.002Z,12.24
2017-02-01T00:23:05.735Z,12.27
2017-02-01T00:24:15.472Z,12.29
2017-02-01T00:25:25.206Z,12.29
2017-02-01T00:26:35.378Z,12.19
2017-02-01T00:27:45.601Z,12.19
2017-02-01T00:28:55.330Z,12.13
2017-02-01T00:30:05.055Z,12.24
2017-02-01T00:31:15.224Z,12.23
2017-02-01T00:32:24.957Z,12.27
2017-02-01T00:33:34.739Z,12.27
2017-02-01T00:34:44.476Z,12.21
2017-02-01T00:35:54.659Z,12.28
2017-02-01T00:37:05.270Z,12.24
2017-02-01T00:38:15.016Z,12.21
2017-02-01T00:39:24.797Z,12.28
2017-02-01T00:40:34.974Z,12.24
2017-02-01T00:41:44.707Z,12.24
2017-02-01T00:42:54.002Z,12.2
2017-02-01T00:44:04.621Z,12.27
2017-02-01T00:45:14.406Z,12.28
2017-02-01T00:46:24.140Z,12.28
2017-02-01T00:47:34.320Z,12.31
2017-02-01T00:48:44.494Z,12.19
2017-02-01T00:49:54.666Z,12.2
2017-02-01T00:51:04.893Z,12.21
2017-02-01T00:52:14.631Z,12.2
2017-02-01T00:53:24.810Z,12.24
2017-02-01T00:54:34.546Z,12.19
2017-02-01T00:55:44.725Z,12.31
2017-02-01T00:56:54.505Z,12.2
2017-02-01T00:58:03.794Z,12.24
2017-02-01T00:59:13.527Z,12.2
2017-02-01T01:00:24.141Z,12.23
2017-02-01T01:01:34.314Z,12.27
2017-02-01T01:02:44.091Z,12.16
2017-02-01T01:03:53.860Z,12.17
2017-02-01T01:05:03.154Z,12.17
2017-02-01T01:06:13.326Z,12.21
2017-02-01T01:07:23.060Z,12.17
2017-02-01T01:08:32.401Z,12.14
2017-02-01T01:09:42.138Z,12.21
2017-02-01T01:10:51.867Z,12.17
2017-02-01T01:12:02.487Z,12.13
2017-02-01T01:13:12.653Z,12.21
2017-02-01T01:14:21.995Z,12.19
2017-02-01T01:15:31.727Z,12.19
2017-02-01T01:16:41.465Z,12.23
2017-02-01T01:17:51.202Z,12.17
2017-02-01T01:19:00.505Z,12.17
2017-02-01T01:20:10.299Z,12.2
2017-02-01T01:21:20.475Z,12.2
2017-02-01T01:22:30.209Z,12.2
2017-02-01T01:23:39.494Z,12.28
2017-02-01T01:24:49.221Z,12.19
2017-02-01T01:25:59.003Z,12.2
2017-02-01T01:27:09.183Z,12.17
2017-02-01T01:28:18.921Z,12.21
2017-02-01T01:29:29.092Z,12.24
2017-02-01T01:30:38.821Z,12.17
2017-02-01T01:31:49.041Z,12.17
2017-02-01T01:32:59.211Z,12.16
2017-02-01T01:34:08.947Z,12.21
2017-02-01T01:35:19.557Z,12.16
2017-02-01T01:36:29.290Z,12.2
2017-02-01T01:37:39.082Z,12.21
2017-02-01T01:38:49.256Z,12.19
2017-02-01T01:39:58.989Z,12.2
2017-02-01T01:41:08.719Z,12.16
2017-02-01T01:42:18.456Z,12.17
2017-02-01T01:43:28.685Z,12.19
2017-02-01T01:44:38.891Z,12.16
2017-02-01T01:45:48.187Z,12.19
2017-02-01T01:46:57.919Z,12.19
2017-02-01T01:48:08.532Z,12.19
2017-02-01T01:49:18.758Z,12.17
2017-02-01T01:50:28.491Z,12.17
2017-02-01T01:51:38.663Z,12.12
2017-02-01T01:52:48.434Z,12.14
2017-02-01T01:53:58.172Z,12.16
2017-02-01T01:55:08.403Z,12.07
2017-02-01T01:56:18.603Z,12.17
2017-02-01T01:57:28.777Z,12.2
2017-02-01T01:58:38.511Z,12.21
2017-02-01T01:59:48.687Z,12.17
2017-02-01T02:00:58.472Z,12.19
2017-02-01T02:02:08.652Z,12.19
2017-02-01T02:03:18.829Z,12.16
2017-02-01T02:04:29.474Z,12.17
2017-02-01T02:05:39.209Z,12.16
2017-02-01T02:06:48.987Z,12.2
2017-02-01T02:07:58.722Z,12.19
2017-02-01T02:09:08.904Z,12.16
2017-02-01T02:10:18.639Z,12.17
2017-02-01T02:11:28.814Z,12.16
2017-02-01T02:12:38.592Z,12.17
2017-02-01T02:13:47.868Z,12.16
2017-02-01T02:14:58.026Z,12.12
2017-02-01T02:16:07.310Z,12.16
2017-02-01T02:17:17.898Z,12.16
2017-02-01T02:18:28.109Z,12.2
2017-02-01T02:19:37.837Z,12.19
2017-02-01T02:20:47.556Z,12.12
2017-02-01T02:21:57.278Z,12.12
2017-02-01T02:23:07.876Z,12.16
2017-02-01T02:24:18.089Z,12.16
2017-02-01T02:25:28.249Z,12.1
2017-02-01T02:26:37.969Z,12.09
2017-02-01T02:27:48.563Z,12.05
2017-02-01T02:28:58.284Z,12.1
2017-02-01T02:30:08.053Z,12.17
2017-02-01T02:31:17.336Z,12.1
2017-02-01T02:32:27.931Z,12.16
2017-02-01T02:33:38.090Z,12.13
2017-02-01T02:34:47.821Z,12.16
2017-02-01T02:35:57.160Z,12.09
2017-02-01T02:37:06.875Z,12.07
2017-02-01T02:38:16.604Z,12.09
2017-02-01T02:39:26.321Z,12.16
2017-02-01T02:40:36.916Z,12.07
2017-02-01T02:41:46.792Z,12.05
2017-02-01T02:42:56.079Z,12.16
2017-02-01T02:44:05.361Z,12.05
2017-02-01T02:45:14.666Z,12.09
2017-02-01T02:46:24.384Z,12.13
2017-02-01T02:47:35.027Z,12.05
2017-02-01T02:48:45.189Z,12.07
2017-02-01T02:49:54.934Z,12.07
2017-02-01T02:51:04.656Z,12.09
2017-02-01T02:52:15.247Z,12.09
2017-02-01T02:53:25.890Z,12.09
2017-02-01T02:54:35.607Z,12.14
2017-02-01T02:55:44.882Z,12.07
2017-02-01T02:56:55.040Z,12.05
2017-02-01T02:58:04.766Z,12.1
2017-02-01T02:59:14.974Z,12.07
2017-02-01T03:00:25.571Z,12.07
2017-02-01T03:01:36.166Z,12.04
2017-02-01T03:02:46.324Z,12.05
2017-02-01T03:03:56.036Z,12.09
2017-02-01T03:05:06.240Z,12.07
2017-02-01T03:06:16.831Z,12.07
2017-02-01T03:07:26.108Z,12.09
2017-02-01T03:08:35.855Z,12.05
2017-02-01T03:09:46.005Z,12.07
2017-02-01T03:10:56.213Z,12.04
2017-02-01T03:12:05.500Z,12.05
2017-02-01T03:13:15.222Z,12.07
2017-02-01T03:14:26.259Z,12.07
2017-02-01T03:15:36.418Z,12.05
2017-02-01T03:16:45.755Z,12.05
2017-02-01T03:17:55.909Z,12.05
2017-02-01T03:19:05.629Z,12.05
2017-02-01T03:20:14.913Z,12.07
2017-02-01T03:21:25.074Z,12.05
2017-02-01T03:22:35.277Z,12.1
2017-02-01T03:23:44.995Z,12.05
2017-02-01T03:24:54.711Z,12.05
2017-02-01T03:26:04.865Z,12.05
2017-02-01T03:27:15.458Z,12.05
2017-02-01T03:28:25.668Z,12.04
2017-02-01T03:29:34.952Z,12.05
2017-02-01T03:30:44.677Z,12.05
2017-02-01T03:31:54.838Z,12.07
2017-02-01T03:33:05.009Z,12.07
2017-02-01T03:34:14.786Z,12.12
2017-02-01T03:35:24.514Z,12.07
2017-02-01T03:36:35.104Z,12.07
2017-02-01T03:37:44.386Z,12.1
2017-02-01T03:38:53.691Z,12.1
2017-02-01T03:40:03.468Z,12.04
2017-02-01T03:41:13.625Z,12.02
2017-02-01T03:42:22.906Z,12.07
2017-02-01T03:43:33.068Z,12.07
2017-02-01T03:44:43.252Z,12.05
2017-02-01T03:45:53.028Z,12.01
2017-02-01T03:47:02.741Z,12.05
2017-02-01T03:48:12.023Z,12.01
2017-02-01T03:49:22.187Z,12.05
2017-02-01T03:50:31.469Z,12.1
2017-02-01T03:51:40.796Z,12.07
2017-02-01T03:52:50.518Z,12.04
2017-02-01T03:53:59.802Z,12.07
2017-02-01T03:55:10.393Z,12.05
2017-02-01T03:56:20.111Z,12.05
2017-02-01T03:57:29.881Z,11.99
2017-02-01T03:58:39.199Z,12.19
2017-02-01T03:59:49.354Z,12.07
2017-02-01T04:00:59.072Z,12.05
2017-02-01T04:02:08.789Z,12.05
2017-02-01T04:03:18.559Z,12.01
2017-02-01T04:04:28.716Z,12.02
2017-02-01T04:05:38.431Z,12.05
2017-02-01T04:06:48.596Z,12.1
2017-02-01T04:07:59.187Z,12.07
2017-02-01T04:09:08.523Z,12.1
2017-02-01T04:10:18.676Z,12.09
2017-02-01T04:11:29.279Z,12.02
2017-02-01T04:12:39.000Z,12.1
2017-02-01T04:13:48.725Z,12.09
2017-02-01T04:14:58.054Z,12.1
2017-02-01T04:16:07.335Z,12.05
2017-02-01T04:17:17.929Z,12.01
2017-02-01T04:18:27.218Z,12.12
2017-02-01T04:19:36.499Z,12.07
2017-02-01T04:20:46.711Z,12.13
2017-02-01T04:21:56.424Z,12.05
2017-02-01T04:23:07.455Z,12.09
2017-02-01T04:24:16.743Z,12.16
2017-02-01T04:25:27.337Z,12.05
2017-02-01T04:26:37.977Z,12.1
2017-02-01T04:27:47.696Z,12.04
2017-02-01T04:28:57.417Z,12.05
2017-02-01T04:30:07.141Z,12.01
2017-02-01T04:31:16.424Z,12.1
2017-02-01T04:32:26.200Z,12.02
2017-02-01T04:33:36.354Z,12.1
2017-02-01T04:34:45.638Z,12.04
2017-02-01T04:35:55.800Z,12.14
2017-02-01T04:37:05.516Z,12.14
2017-02-01T04:38:15.291Z,12.05
2017-02-01T04:39:25.015Z,12.04
2017-02-01T04:40:35.609Z,12.1
2017-02-01T04:41:46.197Z,12.04
2017-02-01T04:42:55.925Z,12.1
2017-02-01T04:44:05.700Z,12.07
2017-02-01T04:45:15.854Z,12.1
2017-02-01T04:46:25.138Z,12.07
2017-02-01T04:47:34.856Z,12.13
2017-02-01T04:48:45.454Z,12.07
2017-02-01T04:49:55.659Z,12.12
2017-02-01T04:51:05.825Z,12.1
2017-02-01T04:52:15.122Z,12.05
2017-02-01T04:53:25.284Z,12.07
2017-02-01T04:54:34.564Z,12.07
2017-02-01T04:55:44.782Z,12.14
2017-02-01T04:56:54.061Z,12.07
2017-02-01T04:58:03.784Z,12.12
2017-02-01T04:59:13.501Z,12.05
2017-02-01T05:00:22.784Z,12.09
2017-02-01T05:01:33.430Z,12.07
2017-02-01T05:02:43.586Z,12.04
2017-02-01T05:03:53.750Z,12.16
2017-02-01T05:05:03.474Z,12.12
2017-02-01T05:06:14.067Z,12.07
2017-02-01T05:07:23.838Z,12.05
2017-02-01T05:08:33.124Z,12.07
2017-02-01T05:09:43.283Z,12.07
2017-02-01T05:10:53.004Z,12.16
2017-02-01T05:12:03.599Z,12.09
2017-02-01T05:13:13.547Z,12.07
2017-02-01T05:14:24.583Z,12.07
2017-02-01T05:15:34.735Z,12.07
2017-02-01T05:16:44.891Z,12.09
2017-02-01T05:17:55.040Z,12.16
2017-02-01T05:19:05.244Z,12.05
2017-02-01T05:20:14.527Z,12.04
2017-02-01T05:21:24.677Z,12.12
2017-02-01T05:22:33.951Z,12.05
2017-02-01T05:23:44.541Z,12.04
2017-02-01T05:24:54.312Z,12.09
2017-02-01T05:26:04.039Z,12.05
2017-02-01T05:27:13.756Z,12.13
2017-02-01T05:28:23.909Z,12.07
2017-02-01T05:29:33.634Z,12.04
2017-02-01T05:30:42.966Z,12.07
2017-02-01T05:31:52.690Z,12.07
2017-02-01T05:33:01.968Z,12.12
2017-02-01T05:34:12.130Z,12.13
2017-02-01T05:35:21.408Z,12.05
2017-02-01T05:36:32.055Z,12.04
2017-02-01T05:37:41.338Z,12.09
2017-02-01T05:38:51.053Z,12.09
2017-02-01T05:40:00.779Z,12.02
2017-02-01T05:41:10.492Z,12.12
2017-02-01T05:42:19.829Z,12.13
2017-02-01T05:43:29.549Z,12.01
2017-02-01T05:44:39.716Z,12.12
2017-02-01T05:45:49.000Z,12.07
2017-02-01T05:46:58.725Z,12.12
2017-02-01T05:48:08.054Z,12.02
2017-02-01T05:49:17.771Z,12.02
2017-02-01T05:50:27.933Z,12.12
2017-02-01T05:51:37.662Z,12.12
2017-02-01T05:52:47.378Z,12.09
2017-02-01T05:53:58.022Z,12.04
2017-02-01T05:55:07.745Z,12.07
2017-02-01T05:56:17.890Z,12.12
2017-02-01T05:57:28.488Z,11.98
2017-02-01T05:58:38.210Z,12.07
2017-02-01T05:59:48.409Z,11.94
2017-02-01T06:00:59.008Z,12.01
2017-02-01T06:02:08.742Z,12.12
2017-02-01T06:03:18.897Z,12.12
2017-02-01T06:04:29.058Z,12.12
2017-02-01T06:05:39.701Z,12.09
2017-02-01T06:06:48.984Z,12.02
2017-02-01T06:07:59.579Z,11.96
2017-02-01T06:09:09.300Z,11.96
2017-02-01T06:10:18.584Z,12.04
2017-02-01T06:11:28.358Z,12.12
2017-02-01T06:12:38.082Z,12.07
2017-02-01T06:13:48.239Z,12.09
2017-02-01T06:14:57.528Z,12.02
2017-02-01T06:16:07.243Z,12.13
2017-02-01T06:17:17.008Z,12.09
2017-02-01T06:18:26.733Z,11.96
2017-02-01T06:19:36.455Z,12.07
2017-02-01T06:20:46.178Z,12.02
2017-02-01T06:21:56.337Z,11.98
2017-02-01T06:23:05.668Z,11.98
2017-02-01T06:24:15.834Z,11.94
2017-02-01T06:25:25.552Z,11.96
2017-02-01T06:26:34.843Z,12.14
2017-02-01T06:27:45.879Z,11.91
2017-02-01T06:28:56.108Z,12.09
2017-02-01T06:30:05.386Z,11.94
2017-02-01T06:31:15.544Z,11.94
2017-02-01T06:32:25.265Z,12.1
2017-02-01T06:33:35.420Z,12.01
2017-02-01T06:34:45.189Z,12.02
2017-02-01T06:35:55.386Z,12.12
2017-02-01T06:37:05.106Z,11.95
2017-02-01T06:38:15.267Z,12.05
2017-02-01T06:39:24.549Z,11.86
2017-02-01T06:40:34.312Z,11.99
2017-02-01T06:41:44.033Z,11.95
2017-02-01T06:42:53.755Z,11.94
2017-02-01T06:44:03.061Z,12.02
2017-02-01T06:45:12.772Z,11.9
2017-02-01T06:46:23.410Z,11.94
2017-02-01T06:47:33.123Z,12.02
2017-02-01T06:48:43.279Z,12.12
2017-02-01T06:49:53.447Z,11.9
2017-02-01T06:51:03.162Z,12.07
2017-02-01T06:52:12.937Z,12.14
2017-02-01T06:53:22.218Z,12.12
2017-02-01T06:54:31.502Z,11.96
2017-02-01T06:55:42.095Z,12.01
2017-02-01T06:56:52.691Z,11.96
2017-02-01T06:58:03.342Z,11.95
2017-02-01T06:59:12.628Z,12.1
2017-02-01T07:00:22.379Z,12.02
2017-02-01T07:01:32.541Z,11.98
2017-02-01T07:02:41.828Z,12.01
2017-02-01T07:03:52.036Z,11.94
2017-02-01T07:05:01.313Z,12.02
2017-02-01T07:06:11.056Z,11.96
2017-02-01T07:07:20.334Z,12.13
2017-02-01T07:08:30.496Z,12.02
2017-02-01T07:09:39.827Z,11.98
2017-02-01T07:10:50.417Z,11.96
2017-02-01T07:12:00.165Z,11.98
2017-02-01T07:13:09.447Z,11.94
2017-02-01T07:14:20.043Z,11.96
2017-02-01T07:15:29.812Z,12.02
2017-02-01T07:16:39.099Z,11.95
2017-02-01T07:17:48.820Z,12.04
2017-02-01T07:18:59.001Z,12.02
2017-02-01T07:20:09.153Z,12.02
2017-02-01T07:21:18.479Z,11.96
2017-02-01T07:22:29.074Z,12.07
2017-02-01T07:23:38.799Z,12.02
2017-02-01T07:24:48.521Z,11.95
2017-02-01T07:25:57.801Z,11.96
2017-02-01T07:27:08.449Z,12.04
2017-02-01T07:28:19.047Z,11.99
2017-02-01T07:29:29.645Z,12.14
2017-02-01T07:30:40.241Z,12.07
2017-02-01T07:31:50.398Z,12.02
2017-02-01T07:33:00.170Z,12.02
2017-02-01T07:34:10.335Z,12.13
2017-02-01T07:35:19.640Z,12.04
2017-02-01T07:36:29.361Z,12.02
2017-02-01T07:37:38.646Z,12.05
2017-02-01T07:38:48.855Z,12.1
2017-02-01T07:39:58.567Z,12.09
2017-02-01T07:41:08.729Z,12.07
2017-02-01T07:42:18.465Z,11.98
2017-02-01T07:43:28.616Z,12.09
2017-02-01T07:44:38.394Z,12.12
2017-02-01T07:45:48.559Z,12.09
2017-02-01T07:46:58.287Z,12.07
2017-02-01T07:48:08.440Z,12.09
2017-02-01T07:49:18.603Z,12.05
2017-02-01T07:50:28.367Z,12.09
2017-02-01T07:51:37.646Z,12.01
2017-02-01T07:52:47.365Z,12.07
2017-02-01T07:53:57.526Z,12.07
2017-02-01T07:55:06.808Z,12.05
2017-02-01T07:56:16.587Z,12.05
2017-02-01T07:57:26.315Z,12.09
2017-02-01T07:58:36.030Z,12.05
2017-02-01T07:59:45.754Z,12.05
2017-02-01T08:00:55.480Z,12.09
2017-02-01T08:02:05.244Z,12.07
2017-02-01T08:03:14.970Z,12.07
2017-02-01T08:04:25.565Z,12.13
2017-02-01T08:05:35.278Z,12.16
2017-02-01T08:06:44.996Z,12.16
2017-02-01T08:07:54.767Z,12.2
2017-02-01T08:09:04.917Z,12.05
2017-02-01T08:10:14.626Z,12.16
2017-02-01T08:11:24.344Z,12.17
2017-02-01T08:12:34.061Z,12.19
2017-02-01T08:13:44.271Z,12.2
2017-02-01T08:14:53.552Z,12.19
2017-02-01T08:16:03.268Z,12.17
2017-02-01T08:17:13.866Z,12.17
2017-02-01T08:18:23.154Z,12.24
2017-02-01T08:19:33.513Z,12.21
2017-02-01T08:20:42.796Z,12.27
2017-02-01T08:21:52.947Z,12.29
2017-02-01T08:23:02.671Z,12.28
2017-02-01T08:24:13.264Z,12.23
2017-02-01T08:25:23.035Z,12.28
2017-02-01T08:26:32.755Z,12.14
2017-02-01T08:27:42.035Z,12.23
2017-02-01T08:28:52.194Z,12.2
2017-02-01T08:30:02.787Z,12.27
2017-02-01T08:31:12.560Z,12.28
2017-02-01T08:32:23.154Z,12.27
2017-02-01T08:33:33.318Z,12.27
2017-02-01T08:34:42.599Z,12.21
2017-02-01T08:35:52.785Z,12.21
2017-02-01T08:37:02.566Z,12.24
2017-02-01T08:38:11.849Z,12.24
2017-02-01T08:39:21.573Z,12.23
2017-02-01T08:40:31.292Z,12.32
2017-02-01T08:41:41.449Z,12.23
2017-02-01T08:42:51.214Z,12.21
2017-02-01T08:44:01.370Z,12.37
2017-02-01T08:45:11.092Z,12.37
2017-02-01T08:46:20.806Z,12.37
2017-02-01T08:47:30.532Z,12.31
2017-02-01T08:48:40.734Z,12.23
2017-02-01T08:49:50.449Z,12.37
2017-02-01T08:51:01.044Z,12.34
2017-02-01T08:52:10.773Z,12.34
2017-02-01T08:53:20.504Z,12.35
2017-02-01T08:54:30.708Z,12.35
2017-02-01T08:55:39.995Z,12.35
2017-02-01T08:56:50.591Z,12.37
2017-02-01T08:58:01.183Z,12.39
2017-02-01T08:59:10.464Z,12.32
2017-02-01T09:00:20.777Z,12.38
2017-02-01T09:01:30.060Z,12.38
2017-02-01T09:02:40.227Z,12.37
2017-02-01T09:03:49.506Z,12.46
2017-02-01T09:05:00.100Z,12.39
2017-02-01T09:06:10.765Z,12.42
2017-02-01T09:07:20.486Z,12.45
2017-02-01T09:08:30.644Z,12.5
2017-02-01T09:09:40.389Z,12.47
2017-02-01T09:10:50.547Z,12.45
2017-02-01T09:11:59.879Z,12.47
2017-02-01T09:13:10.044Z,12.5
2017-02-01T09:14:20.205Z,12.45
2017-02-01T09:15:30.799Z,12.54
2017-02-01T09:16:40.527Z,12.53
2017-02-01T09:17:49.867Z,12.54
2017-02-01T09:19:00.031Z,12.54
2017-02-01T09:20:09.750Z,12.57
2017-02-01T09:21:19.477Z,12.49
2017-02-01T09:22:29.646Z,12.59
2017-02-01T09:23:39.420Z,12.57
2017-02-01T09:24:49.580Z,12.53
2017-02-01T09:25:58.868Z,12.54
2017-02-01T09:27:09.031Z,12.57
2017-02-01T09:28:18.312Z,12.6
2017-02-01T09:29:28.075Z,12.64
2017-02-01T09:30:38.237Z,12.64
2017-02-01T09:31:48.399Z,12.57
2017-02-01T09:32:58.565Z,12.57
2017-02-01T09:34:07.849Z,12.64
2017-02-01T09:35:17.627Z,12.64
2017-02-01T09:36:27.356Z,12.67
2017-02-01T09:37:37.520Z,12.54
2017-02-01T09:38:47.253Z,12.68
2017-02-01T09:39:56.548Z,12.59
2017-02-01T09:41:05.983Z,12.6
2017-02-01T09:42:16.146Z,12.56
2017-02-01T09:43:25.431Z,12.6
2017-02-01T09:44:35.157Z,12.59
2017-02-01T09:45:44.450Z,12.59
2017-02-01T09:46:54.227Z,12.54
2017-02-01T09:48:03.513Z,12.57
2017-02-01T09:49:13.232Z,12.6
2017-02-01T09:50:22.518Z,12.62
2017-02-01T09:51:32.238Z,12.6
2017-02-01T09:52:42.889Z,12.6
2017-02-01T09:53:52.610Z,12.62
2017-02-01T09:55:01.909Z,12.68
2017-02-01T09:56:12.072Z,12.6
2017-02-01T09:57:22.230Z,12.64
2017-02-01T09:58:32.005Z,12.62
2017-02-01T09:59:42.603Z,12.64
2017-02-01T10:00:52.766Z,12.67
2017-02-01T10:02:02.481Z,12.75
2017-02-01T10:03:12.638Z,12.65
2017-02-01T10:04:23.281Z,12.7
2017-02-01T10:05:33.442Z,12.67
2017-02-01T10:06:43.166Z,12.72
2017-02-01T10:07:54.191Z,12.67
2017-02-01T10:09:04.356Z,12.7
2017-02-01T10:10:14.122Z,12.71
2017-02-01T10:11:24.285Z,12.82
2017-02-01T10:12:34.012Z,12.71
2017-02-01T10:13:45.039Z,12.7
2017-02-01T10:14:55.197Z,12.79
2017-02-01T10:16:05.400Z,12.85
2017-02-01T10:17:15.557Z,12.77
2017-02-01T10:18:25.739Z,12.9
2017-02-01T10:19:36.331Z,12.83
2017-02-01T10:20:46.061Z,12.82
2017-02-01T10:21:55.832Z,12.71
2017-02-01T10:23:06.336Z,12.82
2017-02-01T10:24:15.617Z,12.85
2017-02-01T10:25:25.346Z,12.78
2017-02-01T10:26:35.091Z,12.75
2017-02-01T10:27:44.860Z,12.9
2017-02-01T10:28:55.018Z,12.85
2017-02-01T10:30:04.306Z,12.82
2017-02-01T10:31:14.033Z,12.87
2017-02-01T10:32:23.757Z,12.77
2017-02-01T10:33:33.968Z,12.83
2017-02-01T10:34:43.246Z,12.96
2017-02-01T10:35:53.406Z,12.82
2017-02-01T10:37:03.130Z,12.95
2017-02-01T10:38:12.415Z,12.75
2017-02-01T10:39:22.630Z,12.85
2017-02-01T10:40:31.915Z,12.83
2017-02-01T10:41:41.214Z,12.82
2017-02-01T10:42:51.373Z,12.83
2017-02-01T10:44:00.665Z,12.83
2017-02-01T10:45:10.148Z,12.93
2017-02-01T10:46:19.876Z,12.83
2017-02-01T10:47:30.473Z,12.92
2017-02-01T10:48:39.756Z,12.95
2017-02-01T10:49:49.912Z,12.92
2017-02-01T10:50:59.682Z,12.92
2017-02-01T10:52:09.403Z,12.87
2017-02-01T10:53:19.592Z,12.86
2017-02-01T10:54:29.308Z,12.87
2017-02-01T10:55:39.462Z,12.87
2017-02-01T10:56:48.794Z,12.93
2017-02-01T10:57:59.389Z,12.93
2017-02-01T10:59:09.117Z,12.96
2017-02-01T11:00:19.259Z,12.9
2017-02-01T11:01:28.573Z,12.97
2017-02-01T11:02:38.339Z,12.85
2017-02-01T11:03:48.940Z,12.97
2017-02-01T11:04:58.671Z,12.93
2017-02-01T11:06:09.273Z,12.92
2017-02-01T11:07:18.998Z,12.97
2017-02-01T11:08:28.327Z,12.97
2017-02-01T11:09:38.048Z,12.85
2017-02-01T11:10:48.209Z,13
2017-02-01T11:11:57.491Z,12.96
2017-02-01T11:13:07.212Z,12.95
2017-02-01T11:14:16.985Z,12.97
2017-02-01T11:15:26.270Z,12.96
2017-02-01T11:16:36.003Z,12.89
2017-02-01T11:17:45.719Z,12.92
2017-02-01T11:18:55.876Z,13.01
2017-02-01T11:20:06.069Z,12.87
2017-02-01T11:21:16.232Z,13.01
2017-02-01T11:22:25.508Z,12.97
2017-02-01T11:23:35.229Z,13.01
2017-02-01T11:24:45.393Z,13.01
2017-02-01T11:25:55.271Z,13.11
2017-02-01T11:27:04.556Z,13.07
2017-02-01T11:28:14.720Z,13.1
2017-02-01T11:29:24.433Z,13.07
2017-02-01T11:30:34.588Z,13.17
2017-02-01T11:31:43.921Z,13.15
2017-02-01T11:32:53.644Z,13.22
2017-02-01T11:34:03.365Z,13.2
2017-02-01T11:35:13.530Z,13.22
2017-02-01T11:36:23.695Z,13.26
2017-02-01T11:37:33.926Z,13.32
2017-02-01T11:38:43.657Z,13.26
2017-02-01T11:39:53.376Z,13.29
2017-02-01T11:41:03.533Z,13.42
2017-02-01T11:42:13.683Z,13.49
2017-02-01T11:43:23.011Z,13.55
2017-02-01T11:44:33.173Z,13.67
2017-02-01T11:45:42.456Z,13.7
2017-02-01T11:46:53.050Z,13.73
2017-02-01T11:48:03.240Z,13.82
2017-02-01T11:49:13.007Z,13.73
2017-02-01T11:50:22.724Z,13.87
2017-02-01T11:51:32.442Z,13.87
2017-02-01T11:52:41.753Z,13.92
2017-02-01T11:53:51.049Z,13.96
2017-02-01T11:55:01.697Z,14.07
2017-02-01T11:56:11.435Z,14.15
2017-02-01T11:57:21.597Z,14.06
2017-02-01T11:58:31.753Z,14.12
2017-02-01T11:59:41.919Z,14.17
2017-02-01T12:00:51.682Z,14.15
2017-02-01T12:02:01.839Z,14.32
2017-02-01T12:03:12.017Z,14.29
2017-02-01T12:04:21.306Z,14.39
2017-02-01T12:05:31.469Z,14.43
2017-02-01T12:06:40.800Z,14.39
2017-02-01T12:07:50.516Z,14.5
2017-02-01T12:09:00.238Z,14.5
2017-02-01T12:10:10.395Z,14.72
2017-02-01T12:11:20.557Z,14.69
2017-02-01T12:12:29.886Z,14.69
2017-02-01T12:13:40.107Z,14.75
2017-02-01T12:14:49.838Z,14.78
2017-02-01T12:15:59.992Z,14.75
2017-02-01T12:17:09.276Z,14.86
2017-02-01T12:18:19.491Z,14.91
2017-02-01T12:19:28.775Z,14.96
2017-02-01T12:20:39.368Z,14.95
2017-02-01T12:21:49.966Z,14.98
2017-02-01T12:22:59.249Z,15.1
2017-02-01T12:24:09.026Z,15.16
2017-02-01T12:25:18.314Z,15.14
2017-02-01T12:26:28.034Z,15.25
2017-02-01T12:27:37.757Z,15.21
2017-02-01T12:28:48.358Z,15.21
2017-02-01T12:29:59.000Z,15.29
2017-02-01T12:31:09.153Z,15.36
2017-02-01T12:32:18.873Z,15.38
2017-02-01T12:33:29.476Z,15.47
2017-02-01T12:34:39.629Z,15.43
2017-02-01T12:35:49.430Z,15.54
2017-02-01T12:36:58.716Z,15.6
2017-02-01T12:38:07.996Z,15.6
2017-02-01T12:39:17.276Z,15.67
2017-02-01T12:40:26.566Z,15.74
2017-02-01T12:41:36.334Z,15.8
2017-02-01T12:42:46.935Z,15.89
2017-02-01T12:43:57.541Z,15.84
2017-02-01T12:45:08.131Z,15.89
2017-02-01T12:46:18.728Z,15.96
2017-02-01T12:47:29.375Z,15.94
2017-02-01T12:48:39.104Z,16
2017-02-01T12:49:48.820Z,15.97
2017-02-01T12:50:59.077Z,16.05
2017-02-01T12:52:09.671Z,16.08
2017-02-01T12:53:19.451Z,16.09
2017-02-01T12:54:29.642Z,16.23
2017-02-01T12:55:39.807Z,16.21
2017-02-01T12:56:49.964Z,16.17
2017-02-01T12:57:59.686Z,16.21
2017-02-01T12:59:09.487Z,16.25
2017-02-01T13:01:28.011Z,16.27
2017-02-01T13:02:38.163Z,16.34
2017-02-01T13:03:47.882Z,16.27
2017-02-01T13:04:58.087Z,16.33
2017-02-01T13:06:08.233Z,16.34
2017-02-01T13:07:18.397Z,16.38
2017-02-01T13:08:28.549Z,16.39
2017-02-01T13:09:38.264Z,16.38
2017-02-01T13:10:48.903Z,16.42
2017-02-01T13:11:58.640Z,16.5
2017-02-01T13:13:07.920Z,16.57
2017-02-01T13:14:17.206Z,16.53
2017-02-01T13:15:26.491Z,16.64
2017-02-01T13:16:37.124Z,16.68
2017-02-01T13:17:47.271Z,16.73
2017-02-01T13:18:57.432Z,16.71
2017-02-01T13:20:07.152Z,16.75
2017-02-01T13:21:17.299Z,16.81
2017-02-01T13:22:27.270Z,16.79
2017-02-01T13:23:36.550Z,16.83
2017-02-01T13:24:46.702Z,16.83
2017-02-01T13:25:55.983Z,16.86
2017-02-01T13:27:05.271Z,16.93
2017-02-01T13:28:15.038Z,16.96
2017-02-01T13:29:25.617Z,16.97
2017-02-01T13:30:35.779Z,16.93
2017-02-01T13:31:45.057Z,17.03
2017-02-01T13:32:54.770Z,17.03
2017-02-01T13:34:04.544Z,17.03
2017-02-01T13:35:14.699Z,17.11
2017-02-01T13:36:24.862Z,17.01
2017-02-01T13:37:34.584Z,17.12
2017-02-01T13:38:43.864Z,17.11
2017-02-01T13:39:54.502Z,17.12
2017-02-01T13:41:05.096Z,17.14
2017-02-01T13:42:14.822Z,17.11
2017-02-01T13:43:25.419Z,17.16
2017-02-01T13:44:35.146Z,17.18
2017-02-01T13:45:44.913Z,17.16
2017-02-01T13:46:54.633Z,17.16
2017-02-01T13:48:04.380Z,17.19
2017-02-01T13:49:14.101Z,17.21
2017-02-01T13:50:24.257Z,17.23
2017-02-01T13:51:34.464Z,17.3
2017-02-01T13:52:44.183Z,17.28
2017-02-01T13:53:53.899Z,17.23
2017-02-01T13:55:03.623Z,17.3
2017-02-01T13:56:13.350Z,17.25
2017-02-01T13:57:23.141Z,17.34
2017-02-01T13:58:32.863Z,17.37
2017-02-01T13:59:42.579Z,17.36
2017-02-01T14:00:52.754Z,17.43
2017-02-01T14:02:02.914Z,17.41
2017-02-01T14:03:13.120Z,17.46
2017-02-01T14:04:22.404Z,17.43
2017-02-01T14:05:32.121Z,17.4
2017-02-01T14:06:42.295Z,17.46
2017-02-01T14:07:52.449Z,17.4
2017-02-01T14:09:02.218Z,17.46
2017-02-01T14:10:12.377Z,17.49
2017-02-01T14:11:22.092Z,17.48
2017-02-01T14:12:31.375Z,17.43
2017-02-01T14:13:40.661Z,17.54
2017-02-01T14:14:49.992Z,17.55
2017-02-01T14:15:59.705Z,17.59
2017-02-01T14:17:09.868Z,17.64
2017-02-01T14:18:19.152Z,17.62
2017-02-01T14:19:29.317Z,17.58
2017-02-01T14:20:39.964Z,17.56
2017-02-01T14:21:49.717Z,17.63
2017-02-01T14:23:00.309Z,17.59
2017-02-01T14:24:09.586Z,17.68
2017-02-01T14:25:19.303Z,17.62
2017-02-01T14:26:29.509Z,17.59
2017-02-01T14:27:39.659Z,17.62
2017-02-01T14:28:49.380Z,17.72
2017-02-01T14:29:59.528Z,17.74
2017-02-01T14:31:10.910Z,17.72
2017-02-01T14:32:23.891Z,17.77
2017-02-01T14:33:36.465Z,17.71
2017-02-01T14:34:48.886Z,17.7
2017-02-01T14:36:01.499Z,17.71
2017-02-01T14:37:13.553Z,17.84
2017-02-01T14:38:26.122Z,17.82
2017-02-01T14:39:38.435Z,17.87
2017-02-01T14:40:50.590Z,17.84
2017-02-01T14:42:01.888Z,17.84
2017-02-01T14:43:11.861Z,17.89
2017-02-01T14:44:21.140Z,17.86
2017-02-01T14:45:30.419Z,17.87
2017-02-01T14:46:39.701Z,17.97
2017-02-01T14:47:49.426Z,18.03
2017-02-01T14:48:58.754Z,17.93
2017-02-01T14:50:08.917Z,17.96
2017-02-01T14:51:18.192Z,17.93
2017-02-01T14:52:28.343Z,17.96
2017-02-01T14:53:38.066Z,18.03
2017-02-01T14:54:48.700Z,18
2017-02-01T14:55:58.849Z,17.96
2017-02-01T14:57:09.008Z,18.05
2017-02-01T14:58:18.732Z,17.99
2017-02-01T14:59:28.451Z,18.11
2017-02-01T15:00:38.218Z,18.08
2017-02-01T15:01:48.398Z,18.08
2017-02-01T15:02:57.696Z,18.02
2017-02-01T15:04:07.410Z,18.11
2017-02-01T15:05:17.129Z,18.08